sensor_id;sensor_type;location;lat;lon;timestamp;pressure;altitude;pressure_sealevel;temperature;humidity
7524;BME280;3803;51.666;7.630;2022-11-23T00:00:04;99154.56;;;10.92;58.53
7524;BME280;3803;51.666;7.630;2022-11-23T00:00:25;99160.66;;;10.94;58.27
7524;BME280;3803;51.666;7.630;2022-11-23T00:00:46;99161.53;;;10.90;58.46
7524;BME280;3803;51.666;7.630;2022-11-23T00:01:24;99144.13;;;10.86;58.48
7524;BME280;3803;51.666;7.630;2022-11-23T00:01:45;99132.81;;;10.78;58.28
7524;BME280;3803;51.666;7.630;2022-11-23T00:02:05;99153.69;;;10.87;58.59
7524;BME280;3803;51.666;7.630;2022-11-23T00:02:26;99164.16;;;10.86;58.57
7524;BME280;3803;51.666;7.630;2022-11-23T00:02:47;99152.84;;;10.82;58.71
7524;BME280;3803;51.666;7.630;2022-11-23T00:03:14;99158.03;;;10.88;58.59
7524;BME280;3803;51.666;7.630;2022-11-23T00:03:35;99153.69;;;10.82;58.56
7524;BME280;3803;51.666;7.630;2022-11-23T00:04:10;99137.16;;;10.76;58.35
7524;BME280;3803;51.666;7.630;2022-11-23T00:04:31;99156.28;;;10.62;58.91
7524;BME280;3803;51.666;7.630;2022-11-23T00:04:52;99152.84;;;10.77;59.07
7524;BME280;3803;51.666;7.630;2022-11-23T00:05:12;99143.25;;;10.70;58.73
7524;BME280;3803;51.666;7.630;2022-11-23T00:05:33;99145.88;;;10.75;58.86
7524;BME280;3803;51.666;7.630;2022-11-23T00:05:53;99163.28;;;10.77;58.78
7524;BME280;3803;51.666;7.630;2022-11-23T00:06:15;99147.59;;;10.79;58.89
7524;BME280;3803;51.666;7.630;2022-11-23T00:06:36;99138.91;;;10.74;58.62
7524;BME280;3803;51.666;7.630;2022-11-23T00:06:56;99147.59;;;10.80;58.70
7524;BME280;3803;51.666;7.630;2022-11-23T00:07:17;99142.38;;;10.74;58.71
7524;BME280;3803;51.666;7.630;2022-11-23T00:07:37;99164.13;;;10.73;58.77
7524;BME280;3803;51.666;7.630;2022-11-23T00:07:58;99150.16;;;10.54;59.12
7524;BME280;3803;51.666;7.630;2022-11-23T00:08:18;99148.44;;;10.50;59.32
7524;BME280;3803;51.666;7.630;2022-11-23T00:08:39;99166.72;;;10.68;59.21
7524;BME280;3803;51.666;7.630;2022-11-23T00:09:00;99167.59;;;10.72;59.16
7524;BME280;3803;51.666;7.630;2022-11-23T00:09:21;99136.28;;;10.66;59.02
7524;BME280;3803;51.666;7.630;2022-11-23T00:09:42;99149.34;;;10.67;59.00
7524;BME280;3803;51.666;7.630;2022-11-23T00:10:02;99152.81;;;10.74;58.79
7524;BME280;3803;51.666;7.630;2022-11-23T00:10:23;99152.81;;;10.76;58.54
7524;BME280;3803;51.666;7.630;2022-11-23T00:10:43;99136.28;;;10.75;58.69
7524;BME280;3803;51.666;7.630;2022-11-23T00:11:04;99158.03;;;10.69;58.84
7524;BME280;3803;51.666;7.630;2022-11-23T00:11:26;99158.00;;;10.63;59.02
7524;BME280;3803;51.666;7.630;2022-11-23T00:11:47;99163.25;;;10.69;59.40
7524;BME280;3803;51.666;7.630;2022-11-23T00:12:07;99167.59;;;10.71;58.89
7524;BME280;3803;51.666;7.630;2022-11-23T00:12:28;99153.66;;;10.59;59.19
7524;BME280;3803;51.666;7.630;2022-11-23T00:12:49;99175.41;;;10.71;59.18
7524;BME280;3803;51.666;7.630;2022-11-23T00:13:09;99158.03;;;10.74;58.70
7524;BME280;3803;51.666;7.630;2022-11-23T00:13:30;99171.97;;;10.87;58.54
7524;BME280;3803;51.666;7.630;2022-11-23T00:13:51;99166.78;;;11.01;58.56
7524;BME280;3803;51.666;7.630;2022-11-23T00:14:12;99159.78;;;11.02;58.11
7524;BME280;3803;51.666;7.630;2022-11-23T00:14:33;99151.06;;;10.87;58.38
7524;BME280;3803;51.666;7.630;2022-11-23T00:14:53;99156.31;;;10.90;58.14
7524;BME280;3803;51.666;7.630;2022-11-23T00:15:15;99146.72;;;10.86;58.36
7524;BME280;3803;51.666;7.630;2022-11-23T00:15:35;99158.91;;;10.92;58.38
7524;BME280;3803;51.666;7.630;2022-11-23T00:15:56;99155.44;;;11.04;58.24
7524;BME280;3803;51.666;7.630;2022-11-23T00:16:22;99165.88;;;11.10;57.87
7524;BME280;3803;51.666;7.630;2022-11-23T00:16:43;99156.31;;;11.04;57.97
7524;BME280;3803;51.666;7.630;2022-11-23T00:17:03;99161.56;;;11.06;58.03
7524;BME280;3803;51.666;7.630;2022-11-23T00:17:24;99151.97;;;11.06;57.98
7524;BME280;3803;51.666;7.630;2022-11-23T00:17:46;99167.63;;;11.09;57.76
7524;BME280;3803;51.666;7.630;2022-11-23T00:18:07;99148.50;;;11.04;57.90
7524;BME280;3803;51.666;7.630;2022-11-23T00:18:28;99165.00;;;11.11;57.67
7524;BME280;3803;51.666;7.630;2022-11-23T00:18:51;99158.03;;;11.04;57.59
7524;BME280;3803;51.666;7.630;2022-11-23T00:19:12;99158.91;;;11.07;57.85
7524;BME280;3803;51.666;7.630;2022-11-23T00:19:32;99159.78;;;11.06;57.62
7524;BME280;3803;51.666;7.630;2022-11-23T00:19:53;99151.09;;;11.06;57.89
7524;BME280;3803;51.666;7.630;2022-11-23T00:20:14;99166.75;;;11.12;57.92
7524;BME280;3803;51.666;7.630;2022-11-23T00:20:38;99163.28;;;11.13;58.06
7524;BME280;3803;51.666;7.630;2022-11-23T00:20:59;99153.69;;;11.14;57.88
7524;BME280;3803;51.666;7.630;2022-11-23T00:21:20;99151.09;;;11.00;57.88
7524;BME280;3803;51.666;7.630;2022-11-23T00:21:41;99149.38;;;11.05;57.77
7524;BME280;3803;51.666;7.630;2022-11-23T00:22:02;99163.28;;;11.16;57.72
7524;BME280;3803;51.666;7.630;2022-11-23T00:22:22;99152.84;;;11.07;57.99
7524;BME280;3803;51.666;7.630;2022-11-23T00:22:43;99139.78;;;11.05;58.08
7524;BME280;3803;51.666;7.630;2022-11-23T00:23:03;99156.31;;;11.03;57.97
7524;BME280;3803;51.666;7.630;2022-11-23T00:23:24;99154.56;;;11.06;58.03
7524;BME280;3803;51.666;7.630;2022-11-23T00:23:45;99145.00;;;10.93;58.26
7524;BME280;3803;51.666;7.630;2022-11-23T00:24:06;99152.81;;;10.85;58.53
7524;BME280;3803;51.666;7.630;2022-11-23T00:24:54;99167.63;;;11.00;58.49
7524;BME280;3803;51.666;7.630;2022-11-23T00:25:15;99151.94;;;10.95;58.28
7524;BME280;3803;51.666;7.630;2022-11-23T00:25:36;99152.84;;;11.02;58.27
7524;BME280;3803;51.666;7.630;2022-11-23T00:25:56;99151.94;;;10.95;58.38
7524;BME280;3803;51.666;7.630;2022-11-23T00:26:17;99164.16;;;11.09;58.40
7524;BME280;3803;51.666;7.630;2022-11-23T00:26:38;99165.00;;;11.06;58.02
7524;BME280;3803;51.666;7.630;2022-11-23T00:26:59;99150.25;;;11.02;58.39
7524;BME280;3803;51.666;7.630;2022-11-23T00:27:19;99166.75;;;11.12;58.11
7524;BME280;3803;51.666;7.630;2022-11-23T00:27:40;99163.28;;;11.10;58.09
7524;BME280;3803;51.666;7.630;2022-11-23T00:28:01;99151.09;;;11.09;57.77
7524;BME280;3803;51.666;7.630;2022-11-23T00:28:21;99162.41;;;11.13;57.75
7524;BME280;3803;51.666;7.630;2022-11-23T00:28:42;99148.50;;;11.10;57.83
7524;BME280;3803;51.666;7.630;2022-11-23T00:29:03;99154.56;;;11.13;57.66
7524;BME280;3803;51.666;7.630;2022-11-23T00:29:23;99167.63;;;11.17;57.77
7524;BME280;3803;51.666;7.630;2022-11-23T00:29:44;99159.81;;;11.14;57.93
7524;BME280;3803;51.666;7.630;2022-11-23T00:30:05;99158.06;;;11.10;57.89
7524;BME280;3803;51.666;7.630;2022-11-23T00:30:26;99158.06;;;11.10;57.62
7524;BME280;3803;51.666;7.630;2022-11-23T00:30:49;99161.53;;;11.15;57.77
7524;BME280;3803;51.666;7.630;2022-11-23T00:31:13;99145.00;;;11.08;57.76
7524;BME280;3803;51.666;7.630;2022-11-23T00:31:34;99161.53;;;11.18;57.50
7524;BME280;3803;51.666;7.630;2022-11-23T00:31:54;99154.59;;;11.14;57.81
7524;BME280;3803;51.666;7.630;2022-11-23T00:32:15;99170.25;;;11.17;57.80
7524;BME280;3803;51.666;7.630;2022-11-23T00:32:36;99149.34;;;11.11;57.74
7524;BME280;3803;51.666;7.630;2022-11-23T00:32:56;99166.75;;;11.15;57.92
7524;BME280;3803;51.666;7.630;2022-11-23T00:33:17;99157.19;;;11.09;57.83
7524;BME280;3803;51.666;7.630;2022-11-23T00:33:38;99145.88;;;11.00;57.77
7524;BME280;3803;51.666;7.630;2022-11-23T00:33:59;99147.63;;;11.07;57.82
7524;BME280;3803;51.666;7.630;2022-11-23T00:34:20;99160.66;;;11.15;57.68
7524;BME280;3803;51.666;7.630;2022-11-23T00:34:40;99153.72;;;11.10;57.93
7524;BME280;3803;51.666;7.630;2022-11-23T00:35:01;99158.91;;;11.14;57.62
7524;BME280;3803;51.666;7.630;2022-11-23T00:35:22;99156.31;;;11.03;57.96
7524;BME280;3803;51.666;7.630;2022-11-23T00:35:43;99155.44;;;10.96;58.23
7524;BME280;3803;51.666;7.630;2022-11-23T00:36:05;99167.63;;;10.99;58.21
7524;BME280;3803;51.666;7.630;2022-11-23T00:36:27;99170.22;;;11.11;57.89
7524;BME280;3803;51.666;7.630;2022-11-23T00:36:49;99165.00;;;11.02;58.03
7524;BME280;3803;51.666;7.630;2022-11-23T00:37:10;99160.66;;;10.88;58.27
7524;BME280;3803;51.666;7.630;2022-11-23T00:37:31;99149.34;;;10.83;58.24
7524;BME280;3803;51.666;7.630;2022-11-23T00:37:51;99159.78;;;10.80;58.52
7524;BME280;3803;51.666;7.630;2022-11-23T00:38:12;99177.16;;;10.72;58.64
7524;BME280;3803;51.666;7.630;2022-11-23T00:38:34;99158.03;;;10.71;58.90
7524;BME280;3803;51.666;7.630;2022-11-23T00:38:54;99156.28;;;10.68;58.95
7524;BME280;3803;51.666;7.630;2022-11-23T00:39:16;99161.50;;;10.73;58.86
7524;BME280;3803;51.666;7.630;2022-11-23T00:39:37;99176.31;;;10.76;58.89
7524;BME280;3803;51.666;7.630;2022-11-23T00:39:58;99155.41;;;10.73;59.00
7524;BME280;3803;51.666;7.630;2022-11-23T00:40:18;99163.22;;;10.73;58.86
7524;BME280;3803;51.666;7.630;2022-11-23T00:40:39;99155.41;;;10.73;59.08
7524;BME280;3803;51.666;7.630;2022-11-23T00:41:04;99147.59;;;10.79;58.87
7524;BME280;3803;51.666;7.630;2022-11-23T00:41:26;99153.69;;;10.75;58.84
7524;BME280;3803;51.666;7.630;2022-11-23T00:41:47;99152.81;;;10.69;58.99
7524;BME280;3803;51.666;7.630;2022-11-23T00:42:07;99164.13;;;10.78;58.97
7524;BME280;3803;51.666;7.630;2022-11-23T00:42:29;99162.38;;;10.75;58.73
7524;BME280;3803;51.666;7.630;2022-11-23T00:42:49;99157.16;;;10.77;58.89
7524;BME280;3803;51.666;7.630;2022-11-23T00:43:10;99158.00;;;10.73;58.82
7524;BME280;3803;51.666;7.630;2022-11-23T00:43:36;99169.34;;;10.82;58.82
7524;BME280;3803;51.666;7.630;2022-11-23T00:43:57;99166.75;;;10.79;59.02
7524;BME280;3803;51.666;7.630;2022-11-23T00:44:17;99159.78;;;10.74;58.66
7524;BME280;3803;51.666;7.630;2022-11-23T00:44:38;99161.53;;;10.75;58.86
7524;BME280;3803;51.666;7.630;2022-11-23T00:45:00;99173.69;;;10.71;59.00
7524;BME280;3803;51.666;7.630;2022-11-23T00:45:21;99157.16;;;10.71;58.78
7524;BME280;3803;51.666;7.630;2022-11-23T00:45:41;99171.06;;;10.74;59.16
7524;BME280;3803;51.666;7.630;2022-11-23T00:46:11;99165.00;;;10.72;59.22
7524;BME280;3803;51.666;7.630;2022-11-23T00:46:32;99170.19;;;10.71;59.20
7524;BME280;3803;51.666;7.630;2022-11-23T00:46:52;99166.72;;;10.72;59.29
7524;BME280;3803;51.666;7.630;2022-11-23T00:47:13;99171.94;;;10.78;59.07
7524;BME280;3803;51.666;7.630;2022-11-23T00:47:33;99164.97;;;10.71;59.03
7524;BME280;3803;51.666;7.630;2022-11-23T00:47:54;99173.69;;;10.80;59.00
7524;BME280;3803;51.666;7.630;2022-11-23T00:48:16;99164.97;;;10.71;59.10
7524;BME280;3803;51.666;7.630;2022-11-23T00:48:37;99183.28;;;10.83;59.15
7524;BME280;3803;51.666;7.630;2022-11-23T00:48:58;99158.00;;;10.73;59.03
7524;BME280;3803;51.666;7.630;2022-11-23T00:49:19;99169.34;;;10.78;59.02
7524;BME280;3803;51.666;7.630;2022-11-23T00:49:41;99158.00;;;10.73;58.79
7524;BME280;3803;51.666;7.630;2022-11-23T00:50:02;99182.41;;;10.87;58.84
7524;BME280;3803;51.666;7.630;2022-11-23T00:50:22;99174.53;;;10.76;58.76
7524;BME280;3803;51.666;7.630;2022-11-23T00:50:44;99161.50;;;10.78;58.97
7524;BME280;3803;51.666;7.630;2022-11-23T00:51:07;99163.25;;;10.85;58.71
7524;BME280;3803;51.666;7.630;2022-11-23T00:51:31;99179.81;;;10.90;58.55
7524;BME280;3803;51.666;7.630;2022-11-23T00:51:52;99166.75;;;10.84;58.40
7524;BME280;3803;51.666;7.630;2022-11-23T00:52:13;99175.44;;;10.92;58.60
7524;BME280;3803;51.666;7.630;2022-11-23T00:52:34;99187.63;;;10.87;58.41
7524;BME280;3803;51.666;7.630;2022-11-23T00:52:56;99161.53;;;10.93;58.30
7524;BME280;3803;51.666;7.630;2022-11-23T00:53:17;99157.19;;;10.88;58.54
7524;BME280;3803;51.666;7.630;2022-11-23T00:53:38;99153.69;;;10.89;58.40
7524;BME280;3803;51.666;7.630;2022-11-23T00:53:59;99170.22;;;10.91;58.35
7524;BME280;3803;51.666;7.630;2022-11-23T00:54:20;99162.38;;;10.85;58.40
7524;BME280;3803;51.666;7.630;2022-11-23T00:54:41;99169.38;;;10.90;58.62
7524;BME280;3803;51.666;7.630;2022-11-23T00:55:02;99165.88;;;10.87;58.69
7524;BME280;3803;51.666;7.630;2022-11-23T00:55:22;99164.13;;;10.81;58.61
7524;BME280;3803;51.666;7.630;2022-11-23T00:55:53;99165.88;;;10.87;58.41
7524;BME280;3803;51.666;7.630;2022-11-23T00:56:14;99185.03;;;10.86;58.39
7524;BME280;3803;51.666;7.630;2022-11-23T00:56:36;99175.41;;;10.71;58.66
7524;BME280;3803;51.666;7.630;2022-11-23T00:56:56;99171.94;;;10.68;58.74
7524;BME280;3803;51.666;7.630;2022-11-23T00:57:17;99164.13;;;10.70;58.84
7524;BME280;3803;51.666;7.630;2022-11-23T00:57:38;99166.72;;;10.78;58.88
7524;BME280;3803;51.666;7.630;2022-11-23T00:57:58;99165.88;;;10.82;58.87
7524;BME280;3803;51.666;7.630;2022-11-23T00:58:20;99164.97;;;10.75;58.92
7524;BME280;3803;51.666;7.630;2022-11-23T00:58:41;99176.31;;;10.83;58.61
7524;BME280;3803;51.666;7.630;2022-11-23T00:59:02;99157.16;;;10.75;58.92
7524;BME280;3803;51.666;7.630;2022-11-23T00:59:23;99155.44;;;10.76;58.90
7524;BME280;3803;51.666;7.630;2022-11-23T00:59:43;99169.34;;;10.79;58.81
7524;BME280;3803;51.666;7.630;2022-11-23T01:00:05;99158.91;;;10.78;58.89
7524;BME280;3803;51.666;7.630;2022-11-23T01:00:26;99163.25;;;10.79;58.87
7524;BME280;3803;51.666;7.630;2022-11-23T01:00:47;99176.31;;;10.83;58.92
7524;BME280;3803;51.666;7.630;2022-11-23T01:01:11;99176.31;;;10.88;58.94
7524;BME280;3803;51.666;7.630;2022-11-23T01:01:34;99169.34;;;10.78;58.93
7524;BME280;3803;51.666;7.630;2022-11-23T01:01:56;99161.50;;;10.81;58.93
7524;BME280;3803;51.666;7.630;2022-11-23T01:02:29;99171.94;;;10.82;58.94
7524;BME280;3803;51.666;7.630;2022-11-23T01:02:49;99171.97;;;10.86;58.99
7524;BME280;3803;51.666;7.630;2022-11-23T01:03:10;99172.84;;;10.83;58.90
7524;BME280;3803;51.666;7.630;2022-11-23T01:03:30;99160.63;;;10.79;58.87
7524;BME280;3803;51.666;7.630;2022-11-23T01:03:54;99156.28;;;10.78;58.96
7524;BME280;3803;51.666;7.630;2022-11-23T01:04:16;99179.78;;;10.81;59.03
7524;BME280;3803;51.666;7.630;2022-11-23T01:04:38;99171.94;;;10.81;59.05
7524;BME280;3803;51.666;7.630;2022-11-23T01:04:58;99160.66;;;10.76;58.93
7524;BME280;3803;51.666;7.630;2022-11-23T01:05:19;99173.72;;;10.82;59.11
7524;BME280;3803;51.666;7.630;2022-11-23T01:05:40;99152.81;;;10.74;59.27
7524;BME280;3803;51.666;7.630;2022-11-23T01:06:08;99183.28;;;10.83;59.03
7524;BME280;3803;51.666;7.630;2022-11-23T01:06:33;99169.34;;;10.79;58.93
7524;BME280;3803;51.666;7.630;2022-11-23T01:06:55;99156.28;;;10.76;59.00
7524;BME280;3803;51.666;7.630;2022-11-23T01:07:16;99171.94;;;10.81;59.14
7524;BME280;3803;51.666;7.630;2022-11-23T01:07:37;99178.03;;;10.85;59.05
7524;BME280;3803;51.666;7.630;2022-11-23T01:07:57;99170.19;;;10.80;58.92
7524;BME280;3803;51.666;7.630;2022-11-23T01:08:18;99178.91;;;10.85;59.00
7524;BME280;3803;51.666;7.630;2022-11-23T01:08:39;99180.66;;;10.86;59.12
7524;BME280;3803;51.666;7.630;2022-11-23T01:09:10;99179.78;;;10.87;58.97
7524;BME280;3803;51.666;7.630;2022-11-23T01:09:32;99166.72;;;10.81;58.96
7524;BME280;3803;51.666;7.630;2022-11-23T01:09:53;99169.34;;;10.79;59.36
7524;BME280;3803;51.666;7.630;2022-11-23T01:10:13;99171.09;;;10.77;58.83
7524;BME280;3803;51.666;7.630;2022-11-23T01:10:34;99170.22;;;10.78;59.28
7524;BME280;3803;51.666;7.630;2022-11-23T01:10:59;99162.38;;;10.75;59.08
7524;BME280;3803;51.666;7.630;2022-11-23T01:11:20;99180.66;;;10.83;59.41
7524;BME280;3803;51.666;7.630;2022-11-23T01:11:41;99171.09;;;10.80;58.96
7524;BME280;3803;51.666;7.630;2022-11-23T01:12:02;99171.09;;;10.83;59.10
7524;BME280;3803;51.666;7.630;2022-11-23T01:12:23;99162.38;;;10.75;59.20
7524;BME280;3803;51.666;7.630;2022-11-23T01:12:43;99173.69;;;10.76;58.96
7524;BME280;3803;51.666;7.630;2022-11-23T01:13:04;99164.13;;;10.76;59.02
7524;BME280;3803;51.666;7.630;2022-11-23T01:13:24;99179.78;;;10.79;59.19
7524;BME280;3803;51.666;7.630;2022-11-23T01:13:45;99178.91;;;10.83;58.95
7524;BME280;3803;51.666;7.630;2022-11-23T01:14:06;99161.53;;;10.79;59.14
7524;BME280;3803;51.666;7.630;2022-11-23T01:14:26;99169.34;;;10.79;58.97
7524;BME280;3803;51.666;7.630;2022-11-23T01:14:47;99170.22;;;10.77;59.10
7524;BME280;3803;51.666;7.630;2022-11-23T01:15:08;99161.53;;;10.92;58.86
7524;BME280;3803;51.666;7.630;2022-11-23T01:15:28;99163.28;;;11.01;58.54
7524;BME280;3803;51.666;7.630;2022-11-23T01:15:49;99183.28;;;11.13;58.28
7524;BME280;3803;51.666;7.630;2022-11-23T01:16:16;99168.47;;;11.04;58.23
7524;BME280;3803;51.666;7.630;2022-11-23T01:16:38;99163.28;;;11.01;58.29
7524;BME280;3803;51.666;7.630;2022-11-23T01:16:59;99173.72;;;10.91;58.33
7524;BME280;3803;51.666;7.630;2022-11-23T01:17:20;99162.41;;;10.83;58.74
7524;BME280;3803;51.666;7.630;2022-11-23T01:17:40;99172.84;;;10.91;58.78
7524;BME280;3803;51.666;7.630;2022-11-23T01:18:02;99168.50;;;10.94;58.38
7524;BME280;3803;51.666;7.630;2022-11-23T01:18:25;99170.22;;;10.95;58.53
7524;BME280;3803;51.666;7.630;2022-11-23T01:18:45;99173.69;;;10.94;58.23
7524;BME280;3803;51.666;7.630;2022-11-23T01:19:10;99178.94;;;11.01;58.42
7524;BME280;3803;51.666;7.630;2022-11-23T01:19:31;99180.69;;;11.02;58.36
7524;BME280;3803;51.666;7.630;2022-11-23T01:19:51;99178.06;;;11.02;58.42
7524;BME280;3803;51.666;7.630;2022-11-23T01:20:12;99184.16;;;11.01;58.33
7524;BME280;3803;51.666;7.630;2022-11-23T01:20:33;99171.09;;;10.99;58.26
7524;BME280;3803;51.666;7.630;2022-11-23T01:20:54;99165.91;;;10.97;58.25
7524;BME280;3803;51.666;7.630;2022-11-23T01:21:15;99170.22;;;11.02;58.27
7524;BME280;3803;51.666;7.630;2022-11-23T01:21:36;99168.50;;;10.97;58.26
7524;BME280;3803;51.666;7.630;2022-11-23T01:21:56;99185.03;;;11.03;57.88
7524;BME280;3803;51.666;7.630;2022-11-23T01:22:18;99164.13;;;10.98;58.31
7524;BME280;3803;51.666;7.630;2022-11-23T01:22:39;99171.09;;;10.94;58.39
7524;BME280;3803;51.666;7.630;2022-11-23T01:23:00;99166.75;;;10.96;58.34
7524;BME280;3803;51.666;7.630;2022-11-23T01:23:20;99173.72;;;11.01;58.25
7524;BME280;3803;51.666;7.630;2022-11-23T01:23:41;99175.47;;;11.03;58.36
7524;BME280;3803;51.666;7.630;2022-11-23T01:24:05;99171.09;;;11.01;58.20
7524;BME280;3803;51.666;7.630;2022-11-23T01:24:26;99179.81;;;11.04;58.49
7524;BME280;3803;51.666;7.630;2022-11-23T01:24:48;99164.16;;;11.00;58.48
7524;BME280;3803;51.666;7.630;2022-11-23T01:25:08;99162.38;;;10.95;58.36
7524;BME280;3803;51.666;7.630;2022-11-23T01:25:31;99168.50;;;10.99;58.18
7524;BME280;3803;51.666;7.630;2022-11-23T01:25:52;99176.31;;;11.04;58.31
7524;BME280;3803;51.666;7.630;2022-11-23T01:26:13;99173.72;;;11.05;58.20
7524;BME280;3803;51.666;7.630;2022-11-23T01:26:33;99178.06;;;11.06;58.00
7524;BME280;3803;51.666;7.630;2022-11-23T01:26:54;99184.16;;;11.07;58.15
7524;BME280;3803;51.666;7.630;2022-11-23T01:27:15;99166.75;;;10.96;58.00
7524;BME280;3803;51.666;7.630;2022-11-23T01:27:36;99173.69;;;11.04;58.42
7524;BME280;3803;51.666;7.630;2022-11-23T01:27:56;99178.06;;;11.08;57.93
7524;BME280;3803;51.666;7.630;2022-11-23T01:28:17;99173.69;;;11.04;57.97
7524;BME280;3803;51.666;7.630;2022-11-23T01:28:39;99182.44;;;11.06;58.14
7524;BME280;3803;51.666;7.630;2022-11-23T01:29:00;99184.19;;;11.13;58.06
7524;BME280;3803;51.666;7.630;2022-11-23T01:29:22;99185.03;;;11.14;58.01
7524;BME280;3803;51.666;7.630;2022-11-23T01:29:43;99182.44;;;11.15;57.99
7524;BME280;3803;51.666;7.630;2022-11-23T01:30:04;99168.50;;;11.10;57.97
7524;BME280;3803;51.666;7.630;2022-11-23T01:30:26;99161.53;;;11.00;57.97
7524;BME280;3803;51.666;7.630;2022-11-23T01:31:13;99191.13;;;11.16;57.80
7524;BME280;3803;51.666;7.630;2022-11-23T01:31:38;99180.69;;;11.14;57.99
7524;BME280;3803;51.666;7.630;2022-11-23T01:32:00;99163.25;;;11.04;57.73
7524;BME280;3803;51.666;7.630;2022-11-23T01:32:21;99178.06;;;11.11;58.06
7524;BME280;3803;51.666;7.630;2022-11-23T01:32:41;99172.88;;;11.09;58.10
7524;BME280;3803;51.666;7.630;2022-11-23T01:33:03;99171.97;;;11.09;57.66
7524;BME280;3803;51.666;7.630;2022-11-23T01:33:24;99182.41;;;11.07;57.75
7524;BME280;3803;51.666;7.630;2022-11-23T01:33:45;99178.94;;;11.10;57.73
7524;BME280;3803;51.666;7.630;2022-11-23T01:34:06;99183.31;;;11.09;57.92
7524;BME280;3803;51.666;7.630;2022-11-23T01:34:27;99179.81;;;11.06;58.02
7524;BME280;3803;51.666;7.630;2022-11-23T01:34:47;99178.94;;;11.07;57.73
7524;BME280;3803;51.666;7.630;2022-11-23T01:35:08;99175.47;;;11.05;58.02
7524;BME280;3803;51.666;7.630;2022-11-23T01:35:29;99171.97;;;11.04;57.96
7524;BME280;3803;51.666;7.630;2022-11-23T01:35:50;99185.91;;;11.08;57.80
7524;BME280;3803;51.666;7.630;2022-11-23T01:36:14;99194.59;;;11.10;58.03
7524;BME280;3803;51.666;7.630;2022-11-23T01:36:34;99176.31;;;11.04;57.83
7524;BME280;3803;51.666;7.630;2022-11-23T01:36:56;99187.63;;;11.12;58.22
7524;BME280;3803;51.666;7.630;2022-11-23T01:37:16;99182.41;;;11.09;58.06
7524;BME280;3803;51.666;7.630;2022-11-23T01:37:38;99175.47;;;11.03;58.12
7524;BME280;3803;51.666;7.630;2022-11-23T01:37:58;99174.59;;;11.01;58.14
7524;BME280;3803;51.666;7.630;2022-11-23T01:38:19;99183.28;;;11.03;58.04
7524;BME280;3803;51.666;7.630;2022-11-23T01:38:41;99190.25;;;11.01;58.33
7524;BME280;3803;51.666;7.630;2022-11-23T01:39:03;99193.75;;;11.05;58.11
7524;BME280;3803;51.666;7.630;2022-11-23T01:39:24;99188.50;;;11.03;58.28
7524;BME280;3803;51.666;7.630;2022-11-23T01:39:44;99180.69;;;11.02;57.92
7524;BME280;3803;51.666;7.630;2022-11-23T01:40:06;99185.88;;;10.95;58.12
7524;BME280;3803;51.666;7.630;2022-11-23T01:40:27;99184.16;;;11.01;58.30
7524;BME280;3803;51.666;7.630;2022-11-23T01:40:48;99181.56;;;10.97;58.04
7524;BME280;3803;51.666;7.630;2022-11-23T01:41:11;99171.97;;;10.96;58.25
7524;BME280;3803;51.666;7.630;2022-11-23T01:41:35;99191.13;;;11.05;58.22
7524;BME280;3803;51.666;7.630;2022-11-23T01:42:02;99185.03;;;10.95;58.30
7524;BME280;3803;51.666;7.630;2022-11-23T01:42:42;99191.13;;;11.05;58.14
7524;BME280;3803;51.666;7.630;2022-11-23T01:43:06;99183.28;;;10.97;58.34
7524;BME280;3803;51.666;7.630;2022-11-23T01:43:30;99190.25;;;10.98;58.10
7524;BME280;3803;51.666;7.630;2022-11-23T01:43:51;99178.94;;;10.97;58.52
7524;BME280;3803;51.666;7.630;2022-11-23T01:44:29;99203.31;;;11.04;58.27
7524;BME280;3803;51.666;7.630;2022-11-23T01:44:51;99185.91;;;11.02;58.19
7524;BME280;3803;51.666;7.630;2022-11-23T01:45:38;99197.22;;;11.02;58.25
7524;BME280;3803;51.666;7.630;2022-11-23T01:46:00;99201.53;;;10.95;58.60
7524;BME280;3803;51.666;7.630;2022-11-23T01:46:21;99193.72;;;11.00;58.50
7524;BME280;3803;51.666;7.630;2022-11-23T01:46:42;99197.19;;;10.91;58.33
7524;BME280;3803;51.666;7.630;2022-11-23T01:47:05;99189.38;;;10.91;58.40
7524;BME280;3803;51.666;7.630;2022-11-23T01:47:26;99197.22;;;11.01;58.76
7524;BME280;3803;51.666;7.630;2022-11-23T01:47:47;99189.38;;;10.97;58.63
7524;BME280;3803;51.666;7.630;2022-11-23T01:48:15;99187.63;;;10.93;58.63
7524;BME280;3803;51.666;7.630;2022-11-23T01:48:59;99204.16;;;11.02;58.51
7524;BME280;3803;51.666;7.630;2022-11-23T01:49:18;99199.81;;;10.97;58.29
7524;BME280;3803;51.666;7.630;2022-11-23T01:49:42;99201.56;;;11.05;58.33
7524;BME280;3803;51.666;7.630;2022-11-23T01:50:03;99192.88;;;11.06;58.43
7524;BME280;3803;51.666;7.630;2022-11-23T01:50:24;99212.03;;;11.05;58.35
7524;BME280;3803;51.666;7.630;2022-11-23T01:50:47;99204.19;;;11.05;58.13
7524;BME280;3803;51.666;7.630;2022-11-23T01:51:15;99199.81;;;11.07;58.24
7524;BME280;3803;51.666;7.630;2022-11-23T01:51:40;99199.81;;;10.97;58.33
7524;BME280;3803;51.666;7.630;2022-11-23T01:52:07;99206.78;;;11.08;58.24
7524;BME280;3803;51.666;7.630;2022-11-23T01:52:29;99192.00;;;11.02;58.13
7524;BME280;3803;51.666;7.630;2022-11-23T01:52:50;99184.16;;;11.01;58.09
7524;BME280;3803;51.666;7.630;2022-11-23T01:53:11;99201.56;;;11.02;58.29
7524;BME280;3803;51.666;7.630;2022-11-23T01:53:32;99206.78;;;11.08;58.34
7524;BME280;3803;51.666;7.630;2022-11-23T01:53:56;99203.31;;;11.09;58.32
7524;BME280;3803;51.666;7.630;2022-11-23T01:54:43;99205.03;;;11.10;58.15
7524;BME280;3803;51.666;7.630;2022-11-23T01:55:05;99194.59;;;11.07;58.18
7524;BME280;3803;51.666;7.630;2022-11-23T01:55:26;99187.63;;;11.04;58.26
7524;BME280;3803;51.666;7.630;2022-11-23T01:55:47;99189.38;;;11.04;58.27
7524;BME280;3803;51.666;7.630;2022-11-23T01:56:14;99194.59;;;11.07;58.15
7524;BME280;3803;51.666;7.630;2022-11-23T01:57:08;99203.28;;;11.12;58.26
7524;BME280;3803;51.666;7.630;2022-11-23T01:57:34;99191.13;;;11.03;58.23
7524;BME280;3803;51.666;7.630;2022-11-23T01:57:57;99203.31;;;11.09;58.27
7524;BME280;3803;51.666;7.630;2022-11-23T01:58:20;99209.41;;;11.05;58.39
7524;BME280;3803;51.666;7.630;2022-11-23T01:58:45;99197.22;;;11.01;58.25
7524;BME280;3803;51.666;7.630;2022-11-23T01:59:10;99208.53;;;11.09;58.21
7524;BME280;3803;51.666;7.630;2022-11-23T01:59:33;99205.06;;;11.02;58.20
7524;BME280;3803;51.666;7.630;2022-11-23T01:59:55;99209.41;;;11.09;58.09
7524;BME280;3803;51.666;7.630;2022-11-23T02:00:16;99192.00;;;11.02;58.23
7524;BME280;3803;51.666;7.630;2022-11-23T02:00:36;99190.25;;;10.98;58.39
7524;BME280;3803;51.666;7.630;2022-11-23T02:00:58;99194.59;;;11.01;58.18